Time;durP1;ratioP1;P1;durP2;ratioP2;P2;SDS_P1;SDS_P2;PMS_P1;PMS_P2;Temp;Humidity;BMP_temperature;BMP_pressure;BME280_temperature;BME280_humidity;BME280_pressure;Samples;Min_cycle;Max_cycle;Signal;HPM_P1;HPM_P2
2023/07/17 00:02:04;;;;;;;;;;;23.70;1.00;;;;;;5255860;28;20405;-71
2023/07/17 00:04:36;;;;;;;3.67;2.60;;;23.70;1.00;;;;;;5266271;28;19900;-72
2023/07/17 00:07:07;;;;;;;2.30;2.10;;;23.70;1.00;;;;;;5266394;28;20027;-72
2023/07/17 00:09:39;;;;;;;3.38;2.30;;;23.70;1.00;;;;;;5247935;28;20038;-71
2023/07/17 00:12:10;;;;;;;2.50;2.30;;;23.60;1.00;;;;;;5265847;28;20050;-72
2023/07/17 00:14:45;;;;;;;3.13;2.83;;;23.60;1.00;;;;;;5231351;28;20043;-72
2023/07/17 00:17:16;;;;;;;3.88;2.10;;;23.50;29.50;;;;;;5241792;28;20548;-72
2023/07/17 00:20:02;;;;;;;2.42;2.15;;;23.50;21.10;;;;;;5245039;28;20036;-72
2023/07/17 00:22:39;;;;;;;2.85;2.42;;;23.40;92.10;;;;;;5226847;28;20097;-71
2023/07/17 00:25:11;;;;;;;2.70;2.10;;;23.30;1.00;;;;;;5246519;28;20031;-72
2023/07/17 00:27:42;;;;;;;4.28;2.78;;;23.30;32.50;;;;;;5243298;28;20036;-73
2023/07/17 00:30:16;;;;;;;2.30;2.10;;;23.40;1.00;;;;;;5225766;28;20025;-73
2023/07/17 00:32:47;;;;;;;3.60;2.13;;;23.40;1.00;;;;;;5258910;28;20050;-72
2023/07/17 00:35:19;;;;;;;2.50;1.95;;;23.40;1.00;;;;;;5259684;28;20036;-72
2023/07/17 00:37:50;;;;;;;3.05;2.58;;;23.50;1.00;;;;;;5230858;28;20039;-72
2023/07/17 00:40:24;;;;;;;2.75;2.47;;;23.60;1.00;;;;;;5247420;28;20036;-72
2023/07/17 00:43:01;;;;;;;3.10;2.63;;;23.60;1.00;;;;;;5265262;28;20024;-72
2023/07/17 00:45:36;;;;;;;2.40;2.17;;;23.60;1.00;;;;;;5263846;28;20028;-72
2023/07/17 00:48:09;;;;;;;2.38;1.92;;;23.60;1.00;;;;;;5247528;28;20030;-72
2023/07/17 00:50:43;;;;;;;2.38;2.15;;;23.50;1.00;;;;;;5247098;28;20031;-71
2023/07/17 00:53:18;;;;;;;2.22;2.03;;;23.50;1.00;;;;;;5264986;28;20042;-72
2023/07/17 00:55:50;;;;;;;3.35;2.40;;;23.50;1.00;;;;;;5245711;28;20024;-72
2023/07/17 00:58:22;;;;;;;3.25;2.47;;;23.50;1.00;;;;;;5246481;28;20036;-72
2023/07/17 01:03:36;;;;;;;2.60;2.40;;;23.50;1.00;;;;;;5282868;28;20043;-64
2023/07/17 01:06:07;;;;;;;2.42;2.20;;;23.60;1.00;;;;;;5246730;28;20035;-64
2023/07/17 01:08:38;;;;;;;3.33;2.53;;;23.60;1.00;;;;;;5282498;28;20035;-65
2023/07/17 01:11:10;;;;;;;2.40;2.17;;;23.60;1.00;;;;;;5282361;28;20040;-62
2023/07/17 01:13:46;;;;;;;2.20;1.98;;;23.70;1.00;;;;;;5249497;28;20035;-64
2023/07/17 01:16:18;;;;;;;2.15;1.95;;;23.90;99.90;;;;;;5282266;28;20019;-64
2023/07/17 01:18:49;;;;;;;2.75;1.88;;;24.10;99.90;;;;;;5285687;28;20027;-63
2023/07/17 01:21:26;;;;;;;2.58;1.80;;;24.00;99.90;;;;;;5233762;28;20417;-64
2023/07/17 01:23:58;;;;;;;2.17;1.92;;;24.10;99.90;;;;;;5245853;28;20228;-63
2023/07/17 01:26:29;;;;;;;2.47;2.05;;;24.10;99.90;;;;;;5248308;28;20053;-62
2023/07/17 01:29:00;;;;;;;1.73;1.60;;;24.00;99.90;;;;;;5272776;28;20031;-65
2023/07/17 01:31:35;;;;;;;2.58;1.80;;;23.90;1.00;;;;;;5242213;28;20039;-64
2023/07/17 01:34:06;;;;;;;;;;;23.80;1.00;;;;;;5270029;28;20327;-64
2023/07/17 01:36:40;;;;;;;3.00;1.92;;;23.80;1.00;;;;;;5277245;28;20280;-64
2023/07/17 01:39:14;;;;;;;1.70;1.60;;;23.80;1.00;;;;;;5258746;28;20042;-66
2023/07/17 01:41:45;;;;;;;;;;;23.80;1.00;;;;;;5250790;28;20310;-63
2023/07/17 01:44:16;;;;;;;2.00;1.80;;;23.80;1.00;;;;;;5285735;28;20072;-64
2023/07/17 01:46:50;;;;;;;2.05;1.63;;;23.70;1.00;;;;;;5262777;28;20305;-63
2023/07/17 01:49:22;;;;;;;2.42;1.95;;;23.70;1.00;;;;;;5233960;28;20046;-64
2023/07/17 01:51:53;;;;;;;2.00;1.80;;;23.80;1.00;;;;;;5258024;28;20036;-64
2023/07/17 01:54:28;;;;;;;7.07;2.35;;;23.80;1.00;;;;;;5280679;28;20026;-62
2023/07/17 01:57:05;;;;;;;2.10;1.90;;;23.70;1.00;;;;;;5248272;28;20041;-63
2023/07/17 01:59:38;;;;;;;1.63;1.50;;;23.80;1.00;;;;;;5276468;27;20027;-63
2023/07/17 02:02:10;;;;;;;4.53;2.00;;;23.80;1.00;;;;;;5251737;28;20048;-64
2023/07/17 02:04:41;;;;;;;1.65;1.55;;;23.90;1.00;;;;;;5265572;28;20508;-65
2023/07/17 02:07:13;;;;;;;3.03;2.00;;;23.90;99.90;;;;;;5228620;28;20031;-65
2023/07/17 02:09:51;;;;;;;1.70;1.60;;;24.00;99.90;;;;;;5263673;28;20030;-64
2023/07/17 02:12:28;;;;;;;2.22;1.80;;;24.00;99.90;;;;;;5227361;28;20323;-63
2023/07/17 02:15:00;;;;;;;1.77;1.52;;;24.10;99.90;;;;;;5243719;28;20053;-65
2023/07/17 02:17:32;;;;;;;3.28;2.05;;;24.10;99.90;;;;;;5238546;28;20115;-65
2023/07/17 02:20:09;;;;;;;2.10;1.60;;;24.10;99.90;;;;;;5240325;28;20038;-64
2023/07/17 02:22:43;;;;;;;2.70;1.77;;;24.10;99.90;;;;;;5248835;28;20366;-66
2023/07/17 02:25:17;;;;;;;3.10;1.90;;;24.10;62.80;;;;;;5247695;28;20073;-64
2023/07/17 02:27:49;;;;;;;;;;;24.10;3.00;;;;;;5264486;28;20057;-62
2023/07/17 02:30:21;;;;;;;2.20;1.83;;;24.10;1.00;;;;;;5279776;28;19910;-63
2023/07/17 02:32:54;;;;;;;2.15;1.80;;;24.10;1.00;;;;;;5248377;28;20054;-63
2023/07/17 02:35:25;;;;;;;1.67;1.45;;;24.10;72.40;;;;;;5247962;28;20174;-66
2023/07/17 02:37:57;;;;;;;2.22;1.83;;;24.00;74.50;;;;;;5275740;28;20038;-63
2023/07/17 02:40:31;;;;;;;2.13;1.85;;;24.00;99.90;;;;;;5260719;28;20028;-66
2023/07/17 02:43:07;;;;;;;3.00;1.80;;;23.90;99.90;;;;;;5244228;28;20042;-64
2023/07/17 02:45:39;;;;;;;2.63;1.98;;;23.90;99.90;;;;;;5244652;28;20020;-63
2023/07/17 02:48:11;;;;;;;2.25;2.05;;;23.90;98.70;;;;;;5283594;28;20028;-64
2023/07/17 02:50:43;;;;;;;1.90;1.70;;;23.90;99.90;;;;;;5285852;28;20034;-62
2023/07/17 02:53:30;;;;;;;1.70;1.60;;;23.90;99.90;;;;;;5264558;28;20267;-64
2023/07/17 02:56:02;;;;;;;1.70;1.60;;;23.80;99.90;;;;;;5283595;28;20140;-63
2023/07/17 02:58:42;;;;;;;2.45;1.80;;;23.80;99.90;;;;;;5257888;28;20034;-65
2023/07/17 03:01:18;;;;;;;2.58;1.85;;;23.70;99.90;;;;;;5280841;28;20045;-64
2023/07/17 03:03:49;;;;;;;2.97;1.70;;;23.70;1.00;;;;;;5264696;28;20230;-62
2023/07/17 03:06:21;;;;;;;4.13;1.80;;;23.60;1.00;;;;;;5265221;28;20044;-64
2023/07/17 03:08:53;;;;;;;2.33;1.67;;;23.50;1.00;;;;;;5248201;28;20031;-63
2023/07/17 03:11:25;;;;;;;2.60;1.92;;;23.50;1.00;;;;;;5281684;28;20028;-63
2023/07/17 03:14:02;;;;;;;2.22;1.70;;;23.40;1.00;;;;;;5227900;28;20109;-66
2023/07/17 03:16:35;;;;;;;2.08;1.88;;;23.30;1.00;;;;;;5261224;28;20093;-65
2023/07/17 03:19:09;;;;;;;2.05;1.92;;;23.30;1.00;;;;;;5237924;28;20039;-65
2023/07/17 03:21:46;;;;;;;;;;;23.30;1.00;;;;;;5281110;28;20030;-65
2023/07/17 03:24:19;;;;;;;2.45;1.60;;;23.30;1.00;;;;;;5282846;28;19938;-65
2023/07/17 03:26:55;;;;;;;2.83;2.00;;;23.20;1.00;;;;;;5282469;28;20188;-63
2023/07/17 03:29:27;;;;;;;2.45;1.60;;;23.10;1.00;;;;;;5245410;28;20279;-64
2023/07/17 03:31:59;;;;;;;2.17;1.80;;;23.10;1.00;;;;;;5272351;28;20062;-63
2023/07/17 03:34:33;;;;;;;1.85;1.75;;;23.00;99.90;;;;;;5230432;28;20040;-63
2023/07/17 03:37:05;;;;;;;2.10;1.80;;;23.00;78.80;;;;;;5248356;28;20328;-62
2023/07/17 03:39:37;;;;;;;3.03;2.00;;;22.90;99.90;;;;;;5248660;28;20197;-62
2023/07/17 03:42:14;;;;;;;2.63;1.92;;;22.90;99.90;;;;;;5247197;28;20245;-65
2023/07/17 03:44:49;;;;;;;3.70;1.70;;;22.90;99.90;;;;;;5244486;28;20477;-61
2023/07/17 03:47:23;;;;;;;2.75;1.90;;;22.90;99.90;;;;;;5236895;28;20032;-63
2023/07/17 03:49:54;;;;;;;2.10;1.90;;;22.90;99.90;;;;;;5244952;28;20257;-62
2023/07/17 03:52:26;;;;;;;2.10;1.90;;;22.90;99.90;;;;;;5247877;28;20028;-63
2023/07/17 03:54:57;;;;;;;2.55;1.55;;;22.90;99.90;;;;;;5227414;28;20054;-63
2023/07/17 03:57:34;;;;;;;2.80;1.80;;;22.90;99.90;;;;;;5275392;28;20024;-65
2023/07/17 04:00:12;;;;;;;2.38;1.58;;;23.00;99.90;;;;;;5256794;28;20336;-64
2023/07/17 04:02:49;;;;;;;2.10;1.60;;;23.00;99.90;;;;;;5250897;28;20043;-64
2023/07/17 04:05:23;;;;;;;2.78;1.77;;;23.10;99.90;;;;;;5252082;28;20027;-62
2023/07/17 04:07:57;;;;;;;1.50;1.40;;;23.10;91.00;;;;;;5235770;28;20476;-63
2023/07/17 04:10:28;;;;;;;2.08;1.88;;;23.10;99.90;;;;;;5252310;28;20366;-60
2023/07/17 04:13:02;;;;;;;2.28;1.85;;;23.10;86.00;;;;;;5264810;28;20240;-61
2023/07/17 04:15:36;;;;;;;2.07;1.67;;;23.20;99.90;;;;;;5244737;28;20042;-64
2023/07/17 04:18:10;;;;;;;2.08;1.80;;;23.30;99.90;;;;;;5285861;28;20038;-63
2023/07/17 04:20:45;;;;;;;3.47;1.90;;;23.40;24.30;;;;;;5250547;28;20052;-63
2023/07/17 04:23:16;;;;;;;2.58;1.73;;;23.40;31.70;;;;;;5261222;28;20028;-63
2023/07/17 04:25:49;;;;;;;1.92;1.80;;;23.50;1.00;;;;;;5247335;28;20028;-62
2023/07/17 04:28:21;;;;;;;1.88;1.67;;;23.50;1.00;;;;;;5264231;28;20229;-64
2023/07/17 04:30:54;;;;;;;2.13;1.70;;;23.60;1.00;;;;;;5247960;28;20039;-63
2023/07/17 04:33:26;;;;;;;2.47;1.67;;;23.80;1.00;;;;;;5266996;28;20320;-64
2023/07/17 04:36:04;;;;;;;3.80;1.85;;;23.80;1.00;;;;;;5251854;28;20028;-61
2023/07/17 04:38:40;;;;;;;1.98;1.73;;;23.90;1.00;;;;;;5250945;28;20287;-61
2023/07/17 04:41:15;;;;;;;2.45;1.77;;;24.00;1.00;;;;;;5233435;28;20043;-63
2023/07/17 04:43:47;;;;;;;4.32;1.80;;;24.20;1.00;;;;;;5266555;28;20058;-61
2023/07/17 04:46:18;;;;;;;1.70;1.30;;;24.30;1.00;;;;;;5262798;28;20036;-62
2023/07/17 04:48:53;;;;;;;1.50;1.40;;;24.30;99.90;;;;;;5285705;28;20037;-63
2023/07/17 04:51:25;;;;;;;2.15;1.80;;;24.30;99.90;;;;;;5250849;28;20226;-65
2023/07/17 04:53:57;;;;;;;2.15;1.70;;;24.30;99.90;;;;;;5234463;28;20043;-62
2023/07/17 04:56:30;;;;;;;2.25;2.05;;;24.40;99.90;;;;;;5267613;28;20035;-63
2023/07/17 04:59:02;;;;;;;3.00;2.23;;;24.50;99.90;;;;;;5286155;28;20038;-61
2023/07/17 05:01:35;;;;;;;2.08;1.73;;;24.60;99.90;;;;;;5282485;28;20036;-62
2023/07/17 05:04:10;;;;;;;2.30;1.83;;;24.80;99.90;;;;;;5268386;28;20505;-62
2023/07/17 05:06:42;;;;;;;2.33;2.00;;;24.90;1.00;;;;;;5269226;28;20413;-61
2023/07/17 05:09:14;;;;;;;1.63;1.40;;;24.90;1.00;;;;;;5250774;28;20031;-62
2023/07/17 05:11:48;;;;;;;2.58;1.60;;;25.00;1.00;;;;;;5267567;28;20355;-61
2023/07/17 05:14:24;;;;;;;1.83;1.70;;;24.90;17.70;;;;;;5287033;28;20224;-63
2023/07/17 05:16:58;;;;;;;2.92;1.80;;;25.00;16.80;;;;;;5248061;28;20041;-62
2023/07/17 05:19:32;;;;;;;2.00;1.80;;;25.10;83.80;;;;;;5251408;28;20365;-62
2023/07/17 05:22:06;;;;;;;1.77;1.65;;;25.40;44.30;;;;;;5267790;28;20292;-61
2023/07/17 05:24:38;;;;;;;1.90;1.70;;;25.40;51.50;;;;;;5246836;28;20208;-62
2023/07/17 05:27:11;;;;;;;2.53;1.95;;;25.20;41.60;;;;;;5260833;28;20042;-61
2023/07/17 05:29:44;;;;;;;2.00;1.90;;;25.40;15.00;;;;;;5268932;28;20317;-61
2023/07/17 05:32:18;;;;;;;1.95;1.75;;;25.40;1.00;;;;;;5262518;28;20036;-63
2023/07/17 05:34:50;;;;;;;2.13;1.90;;;25.50;1.00;;;;;;5247344;28;20355;-65
2023/07/17 05:37:21;;;;;;;2.10;1.75;;;25.60;1.00;;;;;;5250466;28;20027;-65
2023/07/17 05:39:53;;;;;;;1.77;1.55;;;25.50;1.00;;;;;;5284476;28;20035;-62
2023/07/17 05:42:27;;;;;;;2.33;1.63;;;25.60;1.00;;;;;;5232615;28;20296;-63
2023/07/17 05:44:58;;;;;;;2.03;1.70;;;25.80;1.00;;;;;;5246215;28;20031;-62
2023/07/17 05:47:29;;;;;;;2.63;2.10;;;26.00;12.80;;;;;;5276204;28;20035;-63
2023/07/17 05:50:04;;;;;;;;;;;26.00;1.00;;;;;;5262095;28;20040;-64
2023/07/17 05:52:36;;;;;;;1.70;1.60;;;26.00;1.00;;;;;;5246458;28;20133;-64
2023/07/17 05:55:11;;;;;;;2.15;1.95;;;26.10;1.00;;;;;;5264243;28;20023;-62
2023/07/17 05:57:42;;;;;;;1.52;1.35;;;26.20;1.00;;;;;;5249762;28;20027;-64
2023/07/17 06:00:14;;;;;;;1.98;1.73;;;26.40;1.00;;;;;;5263573;28;20031;-62
2023/07/17 06:02:48;;;;;;;1.55;1.45;;;26.60;1.00;;;;;;5235774;28;20043;-62
2023/07/17 06:05:21;;;;;;;1.75;1.50;;;26.50;1.00;;;;;;5284133;28;20035;-63
2023/07/17 06:07:53;;;;;;;2.40;1.70;;;26.70;1.00;;;;;;5250751;28;20033;-62
2023/07/17 06:10:24;;;;;;;1.63;1.45;;;26.90;1.00;;;;;;5285642;28;20020;-63
2023/07/17 06:12:55;;;;;;;2.28;1.85;;;27.10;1.00;;;;;;5284943;28;20038;-62
2023/07/17 06:15:27;;;;;;;1.75;1.65;;;27.00;1.00;;;;;;5260503;28;20248;-62
2023/07/17 06:18:02;;;;;;;2.88;1.80;;;26.70;1.00;;;;;;5262883;28;20023;-63
2023/07/17 06:20:36;;;;;;;;;;;26.40;1.00;;;;;;5229503;28;20039;-64
2023/07/17 06:23:09;;;;;;;4.90;1.73;;;26.30;1.00;;;;;;5262137;28;20097;-63
2023/07/17 06:25:41;;;;;;;1.85;1.67;;;26.40;1.00;;;;;;5263497;28;20036;-63
2023/07/17 06:28:14;;;;;;;2.17;1.75;;;26.30;1.00;;;;;;5261299;28;20020;-63
2023/07/17 06:30:52;;;;;;;1.77;1.67;;;26.30;1.00;;;;;;5281747;28;20248;-62
2023/07/17 06:33:26;;;;;;;2.22;2.00;;;26.50;1.00;;;;;;5284807;28;20032;-65
2023/07/17 06:35:57;;;;;;;1.88;1.70;;;26.70;1.00;;;;;;5266766;28;20301;-63
2023/07/17 06:38:31;;;;;;;3.25;1.70;;;26.80;1.00;;;;;;5282571;28;20031;-64
2023/07/17 06:41:04;;;;;;;3.60;1.77;;;27.20;1.00;;;;;;5244723;28;20344;-61
2023/07/17 06:43:36;;;;;;;3.03;1.35;;;27.30;1.00;;;;;;5267201;28;20487;-62
2023/07/17 06:46:07;;;;;;;2.10;1.90;;;27.30;1.00;;;;;;5229708;28;20031;-63
2023/07/17 06:48:42;;;;;;;2.25;1.90;;;26.80;1.00;;;;;;5284581;28;20030;-63
2023/07/17 06:51:13;;;;;;;2.88;1.83;;;26.70;1.00;;;;;;5266749;28;20043;-60
2023/07/17 06:53:45;;;;;;;2.10;1.90;;;26.60;1.00;;;;;;5267101;28;20034;-61
2023/07/17 06:56:17;;;;;;;2.10;1.77;;;26.90;1.00;;;;;;5284798;28;20031;-62
2023/07/17 06:58:48;;;;;;;1.88;1.70;;;26.80;1.00;;;;;;5265527;28;20045;-61
2023/07/17 07:01:19;;;;;;;1.92;1.75;;;26.90;1.00;;;;;;5248275;28;20293;-62
2023/07/17 07:03:50;;;;;;;3.60;1.85;;;27.40;1.00;;;;;;5248754;28;20057;-63
2023/07/17 07:06:24;;;;;;;1.98;1.80;;;27.20;1.00;;;;;;5284916;28;20031;-61
2023/07/17 07:08:56;;;;;;;2.55;1.95;;;26.90;1.00;;;;;;5249552;28;20036;-63
2023/07/17 07:11:27;;;;;;;1.92;1.75;;;26.90;1.00;;;;;;5284994;28;20116;-62
2023/07/17 07:13:58;;;;;;;1.80;1.70;;;26.90;1.00;;;;;;5284938;28;20391;-64
2023/07/17 07:16:32;;;;;;;2.65;1.77;;;26.90;1.00;;;;;;5263572;28;20393;-62
2023/07/17 07:19:04;;;;;;;2.20;2.00;;;27.10;1.00;;;;;;5249854;28;20043;-62
2023/07/17 07:21:37;;;;;;;2.10;1.90;;;27.10;1.00;;;;;;5275997;28;20054;-62
2023/07/17 07:24:09;;;;;;;2.20;1.90;;;27.10;1.00;;;;;;5246130;28;20046;-63
2023/07/17 07:26:42;;;;;;;2.72;1.55;;;27.10;1.00;;;;;;5270896;28;20042;-60
2023/07/17 07:29:13;;;;;;;1.87;1.70;;;27.10;1.00;;;;;;5273473;28;20024;-62
2023/07/17 07:31:50;;;;;;;2.47;1.95;;;27.10;99.90;;;;;;5257906;28;20054;-61
2023/07/17 07:34:21;;;;;;;2.20;2.00;;;27.10;1.00;;;;;;5268568;28;20213;-61
2023/07/17 07:36:52;;;;;;;2.05;1.85;;;27.30;1.00;;;;;;5258808;28;20024;-62
2023/07/17 07:39:24;;;;;;;1.70;1.58;;;27.30;1.00;;;;;;5266388;28;20050;-60
2023/07/17 07:41:55;;;;;;;1.95;1.73;;;27.40;99.90;;;;;;5249242;28;20028;-63
2023/07/17 07:44:26;;;;;;;1.75;1.48;;;27.60;99.90;;;;;;5265840;28;20040;-63
2023/07/17 07:47:03;;;;;;;7.22;2.03;;;27.80;99.90;;;;;;5269276;28;20033;-63
2023/07/17 07:49:34;;;;;;;1.92;1.70;;;28.30;99.90;;;;;;5288148;28;20037;-62
2023/07/17 07:52:09;;;;;;;2.58;1.70;;;28.70;99.90;;;;;;5252839;28;20481;-59
2023/07/17 07:54:40;;;;;;;1.70;1.58;;;28.60;99.90;;;;;;5252174;28;20050;-60
2023/07/17 07:57:12;;;;;;;2.58;1.67;;;28.50;99.90;;;;;;5281943;28;20027;-63
2023/07/17 07:59:49;;;;;;;2.45;1.92;;;28.30;1.00;;;;;;5261377;28;20016;-63
2023/07/17 08:02:20;;;;;;;2.42;1.90;;;28.40;99.90;;;;;;5252944;28;20040;-61
2023/07/17 08:04:52;;;;;;;2.00;1.80;;;28.20;99.90;;;;;;5231584;28;20042;-62
2023/07/17 08:07:23;;;;;;;1.67;1.52;;;28.10;99.90;;;;;;5231594;28;20463;-62
2023/07/17 08:09:55;;;;;;;2.78;2.17;;;28.30;99.90;;;;;;5266851;28;20026;-63
2023/07/17 08:12:31;;;;;;;2.58;2.22;;;28.20;99.90;;;;;;5232011;28;20343;-61
2023/07/17 08:15:03;;;;;;;3.08;1.63;;;28.40;99.90;;;;;;5264604;28;20036;-64
2023/07/17 08:17:35;;;;;;;2.00;1.80;;;28.40;99.90;;;;;;5246001;28;20031;-61
2023/07/17 08:20:07;;;;;;;2.70;1.75;;;28.50;99.90;;;;;;5232744;28;20046;-63
2023/07/17 08:22:38;;;;;;;2.30;2.10;;;28.30;99.90;;;;;;5232083;28;20281;-61
2023/07/17 08:25:12;;;;;;;2.33;2.13;;;28.10;99.90;;;;;;5266348;28;20324;-63
2023/07/17 08:27:46;;;;;;;3.10;2.17;;;28.40;99.90;;;;;;5238713;28;20036;-63
2023/07/17 08:30:20;;;;;;;2.22;1.85;;;28.60;99.90;;;;;;5212584;28;20193;-62
2023/07/17 08:32:51;;;;;;;2.75;2.00;;;28.40;99.90;;;;;;5262910;28;20040;-64
2023/07/17 08:35:26;;;;;;;2.95;2.40;;;28.40;75.30;;;;;;5265525;28;20289;-61
2023/07/17 08:37:58;;;;;;;3.53;2.08;;;28.40;45.80;;;;;;5249115;28;20024;-61
2023/07/17 08:40:34;;;;;;;2.28;2.08;;;28.20;1.00;;;;;;5262634;28;20352;-61
2023/07/17 08:43:08;;;;;;;2.60;1.98;;;28.10;1.00;;;;;;5268548;28;20023;-62
2023/07/17 08:45:42;;;;;;;2.22;1.95;;;28.40;1.00;;;;;;5283220;28;20065;-60
2023/07/17 08:48:15;;;;;;;2.65;2.10;;;28.70;1.00;;;;;;5252417;28;20039;-62
2023/07/17 08:50:47;;;;;;;2.22;2.00;;;28.90;9.40;;;;;;5251406;28;20062;-61
2023/07/17 08:53:21;;;;;;;2.63;2.08;;;28.90;11.20;;;;;;5251703;28;20032;-62
2023/07/17 08:55:55;;;;;;;2.85;2.10;;;29.20;1.00;;;;;;5251037;28;20314;-61
2023/07/17 08:58:32;;;;;;;2.38;2.10;;;29.20;1.00;;;;;;5286264;28;20044;-60
2023/07/17 09:01:06;;;;;;;3.45;1.95;;;29.10;1.00;;;;;;5283701;28;20367;-59
2023/07/17 09:03:38;;;;;;;2.20;2.00;;;29.60;1.00;;;;;;5250701;28;20207;-61
2023/07/17 09:06:24;;;;;;;2.35;1.90;;;29.70;45.70;;;;;;5251660;28;20039;-62
2023/07/17 09:08:57;;;;;;;3.55;1.67;;;29.90;60.20;;;;;;5251872;28;20041;-62
2023/07/17 09:11:29;;;;;;;2.55;2.28;;;29.10;1.00;;;;;;5250511;28;20043;-61
2023/07/17 09:14:00;;;;;;;3.40;2.30;;;28.50;1.00;;;;;;5250844;28;20036;-61
2023/07/17 09:16:32;;;;;;;2.20;1.88;;;28.00;1.00;;;;;;5263410;28;20054;-62
2023/07/17 09:19:12;;;;;;;4.45;2.10;;;27.80;1.00;;;;;;5264883;28;20228;-62
2023/07/17 09:21:45;;;;;;;2.75;2.00;;;28.00;1.00;;;;;;5281564;28;20300;-60
2023/07/17 09:24:23;;;;;;;2.40;2.15;;;28.00;1.00;;;;;;5264235;28;20031;-63
2023/07/17 09:27:01;;;;;;;3.67;2.30;;;28.20;1.00;;;;;;5285770;28;20028;-61
2023/07/17 09:29:33;;;;;;;2.53;2.33;;;28.00;1.00;;;;;;5285926;28;20038;-60
2023/07/17 09:32:24;;;;;;;3.58;2.67;;;28.00;1.00;;;;;;5260635;28;20038;-63
2023/07/17 09:35:06;;;;;;;4.10;2.10;;;27.80;1.00;;;;;;5248791;28;20031;-65
2023/07/17 09:37:43;;;;;;;2.40;2.20;;;28.10;1.00;;;;;;5263467;28;20032;-63
2023/07/17 09:40:18;;;;;;;2.95;2.50;;;28.00;1.00;;;;;;5265515;28;20105;-61
2023/07/17 09:42:55;;;;;;;3.53;2.40;;;27.80;1.00;;;;;;5245983;28;20028;-61
2023/07/17 09:45:30;;;;;;;2.83;2.15;;;27.30;1.00;;;;;;5261780;28;20028;-61
2023/07/17 09:48:04;;;;;;;2.50;2.30;;;27.40;1.00;;;;;;5244629;28;20340;-62
2023/07/17 09:50:42;;;;;;;2.35;2.05;;;27.60;1.00;;;;;;5246363;28;20016;-61
2023/07/17 09:53:18;;;;;;;2.35;2.15;;;27.70;1.00;;;;;;5245705;28;20030;-62
2023/07/17 09:55:51;;;;;;;2.70;2.20;;;27.80;1.00;;;;;;5240947;28;20019;-59
2023/07/17 09:58:27;;;;;;;5.22;2.20;;;27.90;1.00;;;;;;5261917;28;20034;-62
2023/07/17 10:01:03;;;;;;;3.47;2.30;;;27.70;1.00;;;;;;5262360;28;20340;-63
2023/07/17 10:03:38;;;;;;;2.67;2.40;;;27.50;1.00;;;;;;5259773;28;20032;-62
2023/07/17 10:06:20;;;;;;;2.40;2.20;;;27.50;1.00;;;;;;5264022;28;20050;-61
2023/07/17 10:08:52;;;;;;;2.17;1.98;;;27.40;1.00;;;;;;5240035;28;20035;-60
2023/07/17 10:11:32;;;;;;;3.17;2.35;;;27.10;1.00;;;;;;5249733;28;20062;-61
2023/07/17 10:14:04;;;;;;;2.88;2.40;;;27.40;1.00;;;;;;5266638;28;20351;-62
2023/07/17 10:16:39;;;;;;;2.40;2.15;;;27.50;1.00;;;;;;5233629;28;20194;-61
2023/07/17 10:19:10;;;;;;;3.92;2.15;;;27.70;1.00;;;;;;5249771;28;20389;-63
2023/07/17 10:21:56;;;;;;;2.55;2.35;;;27.90;1.00;;;;;;5284981;28;20047;-59
2023/07/17 10:24:27;;;;;;;2.38;2.17;;;28.20;1.00;;;;;;5267078;28;20062;-59
2023/07/17 10:27:03;;;;;;;2.97;2.30;;;28.10;1.00;;;;;;5249908;28;20286;-60
2023/07/17 10:29:45;;;;;;;3.92;2.60;;;28.10;1.00;;;;;;5283173;28;20254;-60
2023/07/17 10:32:19;;;;;;;2.83;2.53;;;28.30;1.00;;;;;;5267810;28;20043;-61
2023/07/17 10:34:54;;;;;;;4.43;2.63;;;28.80;1.00;;;;;;5249885;28;20042;-62
2023/07/17 10:37:31;;;;;;;3.97;2.58;;;29.50;1.00;;;;;;5267018;28;20045;-60
2023/07/17 10:40:09;;;;;;;3.42;3.10;;;30.10;1.00;;;;;;5265595;28;20027;-62
2023/07/17 10:42:49;;;;;;;3.95;2.50;;;30.60;1.00;;;;;;5266925;28;20046;-63
2023/07/17 10:45:21;;;;;;;3.00;2.67;;;30.70;1.00;;;;;;5248693;28;20031;-64
2023/07/17 10:47:53;;;;;;;3.97;3.10;;;30.20;1.00;;;;;;5266220;28;20035;-61
2023/07/17 10:50:26;;;;;;;3.35;2.78;;;30.10;1.00;;;;;;5245406;28;20048;-63
2023/07/17 10:53:09;;;;;;;4.78;2.95;;;30.00;1.00;;;;;;5246217;28;20040;-62
2023/07/17 10:55:41;;;;;;;2.45;2.25;;;30.90;1.00;;;;;;5245630;28;20035;-62
2023/07/17 10:58:20;;;;;;;3.33;3.00;;;31.80;1.00;;;;;;5244045;28;20050;-61
2023/07/17 11:00:55;;;;;;;3.58;2.17;;;32.20;1.00;;;;;;5278959;28;20034;-62
2023/07/17 11:03:29;;;;;;;2.22;2.03;;;32.60;99.90;;;;;;5244594;28;20046;-62
2023/07/17 11:06:02;;;;;;;2.45;2.17;;;32.40;99.90;;;;;;5245613;28;20046;-62
2023/07/17 11:08:33;;;;;;;2.40;2.20;;;32.70;99.90;;;;;;5246558;28;20051;-62
2023/07/17 11:11:09;;;;;;;2.83;2.40;;;32.70;1.00;;;;;;5254326;28;20062;-62
2023/07/17 11:13:47;;;;;;;2.75;2.50;;;32.40;1.00;;;;;;5265335;28;20227;-63
2023/07/17 11:16:22;;;;;;;3.13;2.83;;;32.60;1.00;;;;;;5276081;28;20322;-62
2023/07/17 11:18:55;;;;;;;3.33;2.75;;;33.40;1.00;;;;;;5250106;28;20035;-62
2023/07/17 11:21:27;;;;;;;3.15;2.50;;;32.90;1.00;;;;;;5265071;28;20389;-62
2023/07/17 11:24:01;;;;;;;3.17;2.88;;;31.80;1.00;;;;;;5285271;28;20038;-62
2023/07/17 11:26:35;;;;;;;2.60;2.40;;;32.00;1.00;;;;;;5233594;28;20041;-61
2023/07/17 11:29:08;;;;;;;2.50;2.30;;;31.30;1.00;;;;;;5247630;28;20028;-61
2023/07/17 11:31:39;;;;;;;2.65;2.45;;;31.50;1.00;;;;;;5248300;28;20039;-59
2023/07/17 11:34:13;;;;;;;2.58;2.38;;;32.20;1.00;;;;;;5266519;28;20027;-63
2023/07/17 11:36:45;;;;;;;;;;;32.60;1.00;;;;;;5246464;28;20043;-63
2023/07/17 11:39:28;;;;;;;2.58;2.17;;;33.20;1.00;;;;;;5279814;28;19908;-62
2023/07/17 11:41:59;;;;;;;3.05;2.75;;;32.40;1.00;;;;;;5259070;28;20034;-63
2023/07/17 11:44:35;;;;;;;3.72;2.50;;;32.70;1.00;;;;;;5280509;28;20024;-62
2023/07/17 11:47:10;;;;;;;3.90;2.75;;;33.60;1.00;;;;;;5279843;28;20040;-61
2023/07/17 11:49:44;;;;;;;3.13;2.33;;;33.80;1.00;;;;;;5249519;28;20028;-61
2023/07/17 11:52:23;;;;;;;3.45;2.60;;;34.00;1.00;;;;;;5265516;28;20042;-63
2023/07/17 11:54:56;;;;;;;2.45;2.25;;;33.30;1.00;;;;;;5284064;28;20030;-60
2023/07/17 11:57:30;;;;;;;3.38;2.40;;;34.40;1.00;;;;;;5248064;28;20065;-61
2023/07/17 12:00:10;;;;;;;2.70;2.50;;;34.80;1.00;;;;;;5242410;28;20034;-60
2023/07/17 12:02:44;;;;;;;2.97;2.63;;;34.20;1.00;;;;;;5265489;28;20068;-61
2023/07/17 12:05:15;;;;;;;2.90;2.60;;;34.20;1.00;;;;;;5228796;28;20032;-61
2023/07/17 12:07:50;;;;;;;3.05;2.75;;;33.60;1.00;;;;;;5265737;28;20031;-61
2023/07/17 12:10:24;;;;;;;2.97;2.67;;;34.30;1.00;;;;;;5229007;28;20038;-63
2023/07/17 12:12:58;;;;;;;2.63;2.33;;;33.80;99.90;;;;;;5248185;28;20028;-60
2023/07/17 12:15:30;;;;;;;4.03;2.67;;;32.40;99.90;;;;;;5247979;28;20040;-63
2023/07/17 12:18:03;;;;;;;2.78;2.50;;;31.40;99.90;;;;;;5258322;28;20046;-62
2023/07/17 12:20:37;;;;;;;3.40;2.53;;;31.40;99.90;;;;;;5232692;28;20028;-62
2023/07/17 12:23:11;;;;;;;3.38;2.47;;;30.90;99.90;;;;;;5248028;28;20023;-62
2023/07/17 12:25:46;;;;;;;2.50;2.30;;;30.70;99.90;;;;;;5270433;28;20023;-62
2023/07/17 12:28:22;;;;;;;4.75;3.58;;;30.70;99.90;;;;;;5273119;28;20028;-63
2023/07/17 12:30:54;;;;;;;2.88;2.30;;;31.10;99.90;;;;;;5284522;28;20046;-61
2023/07/17 12:33:25;;;;;;;2.42;2.20;;;31.00;99.90;;;;;;5269735;28;20036;-62
2023/07/17 12:35:56;;;;;;;3.08;2.65;;;30.50;1.00;;;;;;5252880;28;20036;-61
2023/07/17 12:38:28;;;;;;;2.40;2.20;;;30.60;1.00;;;;;;5288172;28;20024;-63
2023/07/17 12:40:59;;;;;;;2.50;2.25;;;30.30;1.00;;;;;;5275429;28;20028;-62
2023/07/17 12:43:35;;;;;;;2.92;2.40;;;30.00;1.00;;;;;;5265766;28;20043;-60
2023/07/17 12:46:09;;;;;;;2.97;2.38;;;29.90;1.00;;;;;;5246552;28;20024;-60
2023/07/17 12:48:41;;;;;;;;;;;29.50;1.00;;;;;;5286966;28;20023;-62
2023/07/17 12:51:18;;;;;;;2.47;2.28;;;29.70;1.00;;;;;;5285236;28;20251;-62
2023/07/17 12:53:49;;;;;;;2.58;2.30;;;30.00;1.00;;;;;;5270428;28;20037;-61
2023/07/17 12:56:20;;;;;;;5.00;2.38;;;30.20;1.00;;;;;;5231434;28;20042;-65
2023/07/17 12:58:52;;;;;;;2.40;2.17;;;30.80;1.00;;;;;;5235762;28;20038;-63
2023/07/17 13:01:23;;;;;;;2.70;2.40;;;30.00;1.00;;;;;;5268762;28;20026;-62
2023/07/17 13:03:54;;;;;;;2.40;2.20;;;29.50;1.00;;;;;;5288661;28;20022;-61
2023/07/17 13:06:26;;;;;;;2.13;1.90;;;29.60;1.00;;;;;;5280749;28;20037;-63
2023/07/17 13:08:57;;;;;;;2.33;2.15;;;29.60;1.00;;;;;;5269698;28;20028;-63
2023/07/17 13:11:32;;;;;;;2.40;1.98;;;29.90;1.00;;;;;;5267102;28;20561;-60
2023/07/17 13:14:04;;;;;;;2.58;2.05;;;29.90;1.00;;;;;;5260904;28;20347;-61
2023/07/17 13:16:36;;;;;;;2.35;2.15;;;29.20;1.00;;;;;;5265448;28;20032;-61
2023/07/17 13:19:08;;;;;;;2.53;1.92;;;29.10;1.00;;;;;;5267700;28;20541;-63
2023/07/17 13:21:41;;;;;;;3.10;2.33;;;28.90;1.00;;;;;;5266428;28;20422;-62
2023/07/17 13:24:18;;;;;;;2.35;2.15;;;29.00;1.00;;;;;;5231955;28;20453;-62
2023/07/17 13:26:53;;;;;;;3.15;2.65;;;28.90;1.00;;;;;;5268095;28;20031;-61
2023/07/17 13:29:24;;;;;;;2.42;2.22;;;28.30;1.00;;;;;;5274947;28;20039;-60
2023/07/17 13:31:59;;;;;;;2.63;2.35;;;28.40;1.00;;;;;;5258200;28;20470;-62